Time;durP1;ratioP1;P1;durP2;ratioP2;P2;SDS_P1;SDS_P2;PMS_P1;PMS_P2;Temp;Humidity;BMP_temperature;BMP_pressure;BME280_temperature;BME280_humidity;BME280_pressure;Samples;Min_cycle;Max_cycle;Signal;HPM_P1;HPM_P2
2022/05/19 00:02:18;;;;;;;0.00;0.00;;;16.50;80.20;;;;;;5077698;28;20044;-70
2022/05/19 00:04:44;;;;;;;0.00;0.00;;;16.50;80.50;;;;;;5077058;28;20046;-70
2022/05/19 00:07:10;;;;;;;0.00;0.00;;;16.50;80.30;;;;;;5070232;28;20033;-70
2022/05/19 00:09:37;;;;;;;0.00;0.00;;;16.50;80.60;;;;;;5078336;28;20040;-70
2022/05/19 00:12:08;;;;;;;0.00;0.00;;;16.50;80.20;;;;;;5089292;28;20086;-68
2022/05/19 00:14:33;;;;;;;0.00;0.00;;;16.40;80.30;;;;;;5078290;28;20543;-70
2022/05/19 00:16:59;;;;;;;0.00;0.00;;;16.40;80.40;;;;;;5070147;28;20044;-69
2022/05/19 00:19:25;;;;;;;0.00;0.00;;;16.40;80.60;;;;;;5068515;28;20040;-69
2022/05/19 00:21:51;;;;;;;0.00;0.00;;;16.40;80.60;;;;;;5080041;28;20788;-69
2022/05/19 00:24:17;;;;;;;0.00;0.00;;;16.40;80.70;;;;;;5068879;28;20036;-69
2022/05/19 00:26:43;;;;;;;0.00;0.00;;;16.40;81.00;;;;;;5071160;28;20070;-69
2022/05/19 00:29:08;;;;;;;0.00;0.00;;;16.40;81.10;;;;;;5068672;28;20087;-69
2022/05/19 00:31:35;;;;;;;0.30;0.30;;;16.40;81.10;;;;;;5075524;28;20051;-69
2022/05/19 00:34:02;;;;;;;0.77;0.20;;;16.40;80.30;;;;;;5088974;28;20059;-69
2022/05/19 00:36:28;;;;;;;0.45;0.40;;;16.30;80.70;;;;;;5080534;28;20040;-69
2022/05/19 00:38:54;;;;;;;0.00;0.00;;;16.30;80.90;;;;;;5070164;28;20044;-69
2022/05/19 00:41:20;;;;;;;0.00;0.00;;;16.30;81.50;;;;;;5081541;28;20036;-69
2022/05/19 00:43:59;;;;;;;0.00;0.00;;;16.30;81.60;;;;;;5086645;28;20070;-69
2022/05/19 00:46:45;;;;;;;0.00;0.00;;;16.30;81.20;;;;;;5081469;28;20055;-69
2022/05/19 00:49:31;;;;;;;0.00;0.00;;;16.20;81.00;;;;;;5087258;28;20050;-69
2022/05/19 00:52:01;;;;;;;0.00;0.00;;;16.20;81.20;;;;;;5087903;28;20052;-68
2022/05/19 00:54:32;;;;;;;0.00;0.00;;;16.30;81.40;;;;;;5087296;28;20504;-69
2022/05/19 00:57:23;;;;;;;0.00;0.00;;;16.20;81.30;;;;;;5081413;28;20520;-70
2022/05/19 00:59:57;;;;;;;0.00;0.00;;;16.20;81.40;;;;;;5069053;28;20409;-70
2022/05/19 01:02:26;;;;;;;0.00;0.00;;;16.30;81.20;;;;;;5074187;28;20036;-69
2022/05/19 01:05:05;;;;;;;0.00;0.00;;;16.30;81.20;;;;;;5084147;28;20111;-70
2022/05/19 01:07:36;;;;;;;0.00;0.00;;;16.30;81.30;;;;;;5068403;28;20040;-69
2022/05/19 01:10:04;;;;;;;0.00;0.00;;;16.30;81.10;;;;;;5079162;28;20044;-70
2022/05/19 01:12:29;;;;;;;0.00;0.00;;;16.30;81.00;;;;;;5078353;28;20135;-70
2022/05/19 01:14:55;;;;;;;0.00;0.00;;;16.30;81.20;;;;;;5083687;28;20122;-69
2022/05/19 01:17:22;;;;;;;0.00;0.00;;;16.30;81.20;;;;;;5087718;28;20048;-70
2022/05/19 01:19:55;;;;;;;0.00;0.00;;;16.30;81.50;;;;;;5085792;28;20044;-70
2022/05/19 01:22:54;;;;;;;0.00;0.00;;;16.30;81.70;;;;;;5077744;28;20047;-70
2022/05/19 01:25:32;;;;;;;0.00;0.00;;;16.30;81.40;;;;;;5071968;28;20048;-70
2022/05/19 01:27:58;;;;;;;0.00;0.00;;;16.30;81.80;;;;;;5079152;28;20059;-70
2022/05/19 01:30:24;;;;;;;0.00;0.00;;;16.30;81.50;;;;;;5083449;28;20511;-69
2022/05/19 01:32:52;;;;;;;0.00;0.00;;;16.30;81.70;;;;;;5082841;28;20488;-69
2022/05/19 01:35:18;;;;;;;0.00;0.00;;;16.30;82.00;;;;;;5087212;28;20505;-69
2022/05/19 01:37:43;;;;;;;0.00;0.00;;;16.30;81.90;;;;;;5078015;28;20051;-70
2022/05/19 01:40:29;;;;;;;0.00;0.00;;;16.30;81.90;;;;;;5087316;28;20050;-69
2022/05/19 01:43:28;;;;;;;0.00;0.00;;;16.30;82.00;;;;;;5083020;28;20053;-70
2022/05/19 01:46:12;;;;;;;0.00;0.00;;;16.30;81.80;;;;;;5071385;28;20051;-70
2022/05/19 01:48:50;;;;;;;0.00;0.00;;;16.30;82.20;;;;;;5071610;28;20036;-70
2022/05/19 01:51:38;;;;;;;0.00;0.00;;;16.30;81.90;;;;;;5079345;28;20105;-70
2022/05/19 01:54:04;;;;;;;0.00;0.00;;;16.40;82.50;;;;;;5070221;28;20048;-69
2022/05/19 01:56:40;;;;;;;0.00;0.00;;;16.40;82.30;;;;;;5071169;28;20052;-70
2022/05/19 01:59:13;;;;;;;0.00;0.00;;;16.40;82.40;;;;;;5075248;28;20119;-69
2022/05/19 02:01:46;;;;;;;0.00;0.00;;;16.40;82.50;;;;;;5083750;28;20059;-70
2022/05/19 02:04:43;;;;;;;0.00;0.00;;;16.50;82.20;;;;;;5071434;28;20114;-70
2022/05/19 02:07:12;;;;;;;0.00;0.00;;;16.40;82.00;;;;;;5071148;28;20433;-70
2022/05/19 02:09:43;;;;;;;0.00;0.00;;;16.40;81.90;;;;;;5085441;28;20041;-70
2022/05/19 02:12:09;;;;;;;0.03;0.03;;;16.40;82.10;;;;;;5086651;28;20106;-70
2022/05/19 02:14:40;;;;;;;0.00;0.00;;;16.40;81.60;;;;;;5071028;28;20600;-71
2022/05/19 02:17:10;;;;;;;0.00;0.00;;;16.40;81.80;;;;;;5070960;28;20048;-70
2022/05/19 02:19:45;;;;;;;0.00;0.00;;;16.30;81.80;;;;;;5071808;28;20144;-70
2022/05/19 02:22:15;;;;;;;0.00;0.00;;;16.30;81.60;;;;;;5071186;28;20058;-70
2022/05/19 02:24:47;;;;;;;0.00;0.00;;;16.30;82.20;;;;;;5085886;28;20676;-70
2022/05/19 02:27:39;;;;;;;;;;;16.30;81.90;;;;;;5091373;28;20040;-69
2022/05/19 02:30:08;;;;;;;0.00;0.00;;;16.30;81.90;;;;;;5057365;28;19927;-70
2022/05/19 02:32:35;;;;;;;0.00;0.00;;;16.40;81.80;;;;;;5076180;28;20123;-69
2022/05/19 02:35:03;;;;;;;0.00;0.00;;;16.40;81.90;;;;;;5073775;28;20084;-70
2022/05/19 02:37:29;;;;;;;0.00;0.00;;;16.30;82.20;;;;;;5081881;28;20048;-70
2022/05/19 02:39:54;;;;;;;0.00;0.00;;;16.40;82.20;;;;;;5074909;28;20040;-71
2022/05/19 02:42:20;;;;;;;0.00;0.00;;;16.50;82.40;;;;;;5069558;28;20040;-70
2022/05/19 02:44:45;;;;;;;0.00;0.00;;;16.50;82.40;;;;;;5083858;28;20062;-70
2022/05/19 02:47:11;;;;;;;0.25;0.25;;;16.50;82.30;;;;;;5087787;28;20460;-70
2022/05/19 02:49:36;;;;;;;0.00;0.00;;;16.50;82.20;;;;;;5077775;28;20781;-70
2022/05/19 02:52:02;;;;;;;0.00;0.00;;;16.50;82.00;;;;;;5082786;28;20047;-71
2022/05/19 02:54:28;;;;;;;0.90;0.40;;;16.50;82.00;;;;;;5075458;28;20134;-71
2022/05/19 02:56:53;;;;;;;0.00;0.00;;;16.50;81.80;;;;;;5089873;28;20036;-71
2022/05/19 02:59:19;;;;;;;0.00;0.00;;;16.50;81.90;;;;;;5099136;28;20060;-71
2022/05/19 03:01:45;;;;;;;0.00;0.00;;;16.50;82.00;;;;;;5069887;28;20056;-70
2022/05/19 03:04:10;;;;;;;0.00;0.00;;;16.50;81.70;;;;;;5086733;28;20079;-70
2022/05/19 03:06:36;;;;;;;0.00;0.00;;;16.50;81.60;;;;;;5077026;28;20083;-70
2022/05/19 03:09:02;;;;;;;0.00;0.00;;;16.50;82.20;;;;;;5074674;28;20040;-69
2022/05/19 03:11:27;;;;;;;0.00;0.00;;;16.50;82.10;;;;;;5080714;28;20056;-69
2022/05/19 03:13:53;;;;;;;0.00;0.00;;;16.50;82.10;;;;;;5077792;28;20114;-70
2022/05/19 03:16:18;;;;;;;0.00;0.00;;;16.50;82.00;;;;;;5088498;28;20056;-69
2022/05/19 03:18:44;;;;;;;0.00;0.00;;;16.50;81.70;;;;;;5071832;28;20040;-70
2022/05/19 03:21:09;;;;;;;0.00;0.00;;;16.50;81.90;;;;;;5075644;28;20070;-71
2022/05/19 03:23:35;;;;;;;0.00;0.00;;;16.50;81.60;;;;;;5082794;28;20055;-71
2022/05/19 03:26:00;;;;;;;0.00;0.00;;;16.50;81.70;;;;;;5069182;28;20045;-71
2022/05/19 03:28:26;;;;;;;0.00;0.00;;;16.60;81.70;;;;;;5086263;28;20063;-71
2022/05/19 03:30:51;;;;;;;0.00;0.00;;;16.50;81.80;;;;;;5075599;28;20047;-70
2022/05/19 03:33:17;;;;;;;0.00;0.00;;;16.50;81.50;;;;;;5090926;28;20052;-70
2022/05/19 03:35:43;;;;;;;0.20;0.20;;;16.60;81.40;;;;;;5089574;28;20040;-70
2022/05/19 03:38:09;;;;;;;0.32;0.32;;;16.60;81.70;;;;;;5084884;28;20104;-70
2022/05/19 03:40:35;;;;;;;0.00;0.00;;;16.60;81.60;;;;;;5083550;28;20560;-71
2022/05/19 03:43:00;;;;;;;0.00;0.00;;;16.60;81.80;;;;;;5071669;28;20043;-70
2022/05/19 03:45:26;;;;;;;1.30;0.98;;;16.60;81.70;;;;;;5080653;28;20033;-70
2022/05/19 03:47:52;;;;;;;0.00;0.00;;;16.60;81.50;;;;;;5068946;28;20162;-70
2022/05/19 03:50:17;;;;;;;0.00;0.00;;;16.60;81.70;;;;;;5069553;28;20052;-70
2022/05/19 03:52:43;;;;;;;0.00;0.00;;;16.60;81.40;;;;;;5081116;28;20047;-70
2022/05/19 03:55:12;;;;;;;0.00;0.00;;;16.60;81.60;;;;;;5088984;28;20051;-70
2022/05/19 03:57:37;;;;;;;0.00;0.00;;;16.60;81.60;;;;;;5087332;28;20051;-71
2022/05/19 04:00:05;;;;;;;0.00;0.00;;;16.60;82.30;;;;;;5088301;28;20043;-70
2022/05/19 04:02:31;;;;;;;0.00;0.00;;;16.60;82.10;;;;;;5076405;28;20032;-71
2022/05/19 04:04:57;;;;;;;0.00;0.00;;;16.60;82.10;;;;;;5081015;28;20063;-71
2022/05/19 04:07:22;;;;;;;0.00;0.00;;;16.70;82.20;;;;;;5087960;28;20050;-70
2022/05/19 04:09:48;;;;;;;0.00;0.00;;;16.60;82.40;;;;;;5088907;28;20447;-70
2022/05/19 04:12:19;;;;;;;0.08;0.08;;;16.60;82.40;;;;;;5074852;28;20048;-70
2022/05/19 04:14:44;;;;;;;0.00;0.00;;;16.70;82.10;;;;;;5068364;28;20049;-71
2022/05/19 04:17:10;;;;;;;0.00;0.00;;;16.70;82.50;;;;;;5072855;28;20056;-70
2022/05/19 04:19:35;;;;;;;0.00;0.00;;;16.70;82.40;;;;;;5084447;28;20040;-71
2022/05/19 04:22:01;;;;;;;0.00;0.00;;;16.70;82.40;;;;;;5074355;28;20068;-71
2022/05/19 04:24:27;;;;;;;0.00;0.00;;;16.80;82.30;;;;;;5071398;28;20119;-71
2022/05/19 04:26:52;;;;;;;0.00;0.00;;;16.80;82.30;;;;;;5078354;28;20044;-70
2022/05/19 04:29:18;;;;;;;0.00;0.00;;;16.80;82.90;;;;;;5080708;28;20125;-72
2022/05/19 04:31:44;;;;;;;0.03;0.03;;;16.90;82.80;;;;;;5088331;28;20052;-71
2022/05/19 04:34:09;;;;;;;0.20;0.15;;;16.80;82.40;;;;;;5084198;28;20048;-72
2022/05/19 04:36:35;;;;;;;0.00;0.00;;;16.90;82.60;;;;;;5081483;28;20067;-70
2022/05/19 04:39:00;;;;;;;0.00;0.00;;;16.90;82.50;;;;;;5080068;28;20090;-70
2022/05/19 04:41:26;;;;;;;0.00;0.00;;;16.80;83.10;;;;;;5068504;28;20051;-70
2022/05/19 04:43:52;;;;;;;0.00;0.00;;;16.90;83.50;;;;;;5075421;28;20080;-70
2022/05/19 04:46:18;;;;;;;0.00;0.00;;;16.90;83.50;;;;;;5077220;28;20090;-70
2022/05/19 04:48:43;;;;;;;0.00;0.00;;;17.00;83.60;;;;;;5072840;28;20605;-70
2022/05/19 04:51:09;;;;;;;0.00;0.00;;;17.00;83.50;;;;;;5085221;28;20088;-70
2022/05/19 04:53:35;;;;;;;0.00;0.00;;;17.10;83.50;;;;;;5084014;28;20040;-70
2022/05/19 04:56:00;;;;;;;0.00;0.00;;;17.10;83.30;;;;;;5087087;28;20112;-70
2022/05/19 04:58:26;;;;;;;0.00;0.00;;;17.20;83.20;;;;;;5088755;28;20082;-71
2022/05/19 05:00:52;;;;;;;0.00;0.00;;;17.30;83.90;;;;;;5077935;28;21617;-69
2022/05/19 05:03:18;;;;;;;0.00;0.00;;;17.30;83.70;;;;;;5082661;28;20062;-69
2022/05/19 05:05:45;;;;;;;0.03;0.03;;;17.40;84.00;;;;;;5076669;28;20078;-69
2022/05/19 05:08:10;;;;;;;0.10;0.10;;;17.40;84.10;;;;;;5089845;28;20055;-69
2022/05/19 05:10:36;;;;;;;0.08;0.08;;;17.50;84.10;;;;;;5089359;28;20036;-69
2022/05/19 05:13:10;;;;;;;0.00;0.00;;;17.50;84.50;;;;;;5081502;28;20048;-68
2022/05/19 05:15:36;;;;;;;0.00;0.00;;;17.60;84.80;;;;;;5082441;28;20055;-69
2022/05/19 05:18:02;;;;;;;0.57;0.57;;;17.60;84.80;;;;;;5086277;28;20040;-69
2022/05/19 05:20:27;;;;;;;0.03;0.03;;;17.70;84.60;;;;;;5075161;28;20036;-69
2022/05/19 05:22:53;;;;;;;0.22;0.20;;;17.80;84.70;;;;;;5089252;28;20052;-69
2022/05/19 05:25:19;;;;;;;0.30;0.30;;;17.80;85.50;;;;;;5084568;28;20046;-69
2022/05/19 05:27:44;;;;;;;0.00;0.00;;;17.80;86.30;;;;;;5086120;28;20064;-68
2022/05/19 05:30:12;;;;;;;0.20;0.20;;;17.90;86.70;;;;;;5075258;28;20048;-68
2022/05/19 05:32:38;;;;;;;0.20;0.20;;;17.80;87.20;;;;;;5085416;28;20509;-70
2022/05/19 05:35:06;;;;;;;5.15;1.63;;;17.80;86.70;;;;;;5081955;28;20036;-69
2022/05/19 05:37:32;;;;;;;1.02;0.60;;;17.70;86.70;;;;;;5077268;28;20052;-69
2022/05/19 05:39:57;;;;;;;0.00;0.00;;;17.60;86.90;;;;;;5071206;28;20040;-69
2022/05/19 05:42:23;;;;;;;0.20;0.20;;;17.60;87.70;;;;;;5071348;28;20055;-68
2022/05/19 05:44:49;;;;;;;0.65;0.30;;;17.50;88.20;;;;;;5079029;28;20075;-68
2022/05/19 05:47:14;;;;;;;0.30;0.30;;;17.50;88.50;;;;;;5083452;28;20386;-69
2022/05/19 05:49:40;;;;;;;0.00;0.00;;;17.50;88.80;;;;;;5075900;28;20075;-68
2022/05/19 05:52:07;;;;;;;0.73;0.73;;;17.50;88.60;;;;;;5084005;28;20044;-69
2022/05/19 05:54:33;;;;;;;0.10;0.10;;;17.40;88.70;;;;;;5073873;28;20075;-68
2022/05/19 05:56:59;;;;;;;0.00;0.00;;;17.50;89.40;;;;;;5085042;28;20044;-68
2022/05/19 05:59:24;;;;;;;0.65;0.65;;;17.30;89.60;;;;;;5070834;28;20041;-68
2022/05/19 06:01:50;;;;;;;0.10;0.10;;;17.40;89.80;;;;;;5073057;28;20048;-69
2022/05/19 06:04:16;;;;;;;2.42;1.17;;;17.30;90.10;;;;;;5089834;28;20040;-68
2022/05/19 06:06:45;;;;;;;0.73;0.70;;;17.30;90.20;;;;;;5089167;28;20094;-69
2022/05/19 06:09:14;;;;;;;0.10;0.10;;;17.30;90.20;;;;;;5087706;28;20052;-69
2022/05/19 06:11:42;;;;;;;0.10;0.10;;;17.30;90.00;;;;;;5071189;28;20041;-70
2022/05/19 06:14:08;;;;;;;1.25;1.17;;;17.30;89.80;;;;;;5088651;28;20055;-70
2022/05/19 06:16:34;;;;;;;0.00;0.00;;;17.30;89.50;;;;;;5091648;28;20091;-70
2022/05/19 06:18:59;;;;;;;0.00;0.00;;;17.30;89.10;;;;;;5075687;28;20072;-68
2022/05/19 06:21:25;;;;;;;0.00;0.00;;;17.40;89.70;;;;;;5091303;28;20093;-69
2022/05/19 06:23:51;;;;;;;0.00;0.00;;;17.30;89.80;;;;;;5085366;28;20046;-68
2022/05/19 06:26:16;;;;;;;0.00;0.00;;;17.40;90.10;;;;;;5090639;28;20048;-68
2022/05/19 06:28:42;;;;;;;0.00;0.00;;;17.40;90.20;;;;;;5080279;28;20058;-68
2022/05/19 06:31:07;;;;;;;0.00;0.00;;;17.40;90.10;;;;;;5090746;28;20047;-69
2022/05/19 06:33:35;;;;;;;3.92;0.82;;;17.50;90.00;;;;;;5082593;28;20086;-68
2022/05/19 06:36:03;;;;;;;0.00;0.00;;;17.50;90.10;;;;;;5070890;28;20471;-68
2022/05/19 06:38:29;;;;;;;0.00;0.00;;;17.50;89.90;;;;;;5078385;28;20416;-68
2022/05/19 06:42:00;;;;;;;0.00;0.00;;;17.50;89.80;;;;;;5071022;28;20049;-67
2022/05/19 06:43:40;;;;;;;0.00;0.00;;;17.60;89.60;;;;;;5071495;28;20414;-68
2022/05/19 06:46:05;;;;;;;0.00;0.00;;;17.60;89.30;;;;;;5072176;28;20036;-67
2022/05/19 06:48:31;;;;;;;0.00;0.00;;;17.70;89.20;;;;;;5088933;28;20040;-67
2022/05/19 06:50:56;;;;;;;0.00;0.00;;;17.70;89.20;;;;;;5083631;28;20051;-67
2022/05/19 06:53:22;;;;;;;0.00;0.00;;;17.80;89.30;;;;;;5082899;28;20093;-67
2022/05/19 06:55:48;;;;;;;0.00;0.00;;;17.90;89.10;;;;;;5073936;28;20040;-68
2022/05/19 06:58:13;;;;;;;0.00;0.00;;;17.90;89.10;;;;;;5083054;28;20048;-68
2022/05/19 07:00:39;;;;;;;0.00;0.00;;;18.10;89.10;;;;;;5088785;28;20044;-68
2022/05/19 07:03:05;;;;;;;0.00;0.00;;;18.10;89.30;;;;;;5079036;28;20036;-67
2022/05/19 07:05:33;;;;;;;0.00;0.00;;;18.10;89.10;;;;;;5084012;28;20040;-68
2022/05/19 07:07:59;;;;;;;0.00;0.00;;;18.20;88.90;;;;;;5079743;28;20052;-68
2022/05/19 07:10:26;;;;;;;0.00;0.00;;;18.30;88.70;;;;;;5075815;28;20036;-69
2022/05/19 07:12:52;;;;;;;0.00;0.00;;;18.30;88.80;;;;;;5082913;28;20056;-68
2022/05/19 07:15:19;;;;;;;0.00;0.00;;;18.40;88.80;;;;;;5090907;28;20085;-68
2022/05/19 07:17:45;;;;;;;0.00;0.00;;;18.50;88.80;;;;;;5085814;28;20051;-70
2022/05/19 07:22:55;;;;;;;0.00;0.00;;;18.60;88.60;;;;;;5072105;28;20094;-69
2022/05/19 07:25:21;;;;;;;0.00;0.00;;;18.70;88.50;;;;;;5077846;28;20581;-70
2022/05/19 07:27:47;;;;;;;0.00;0.00;;;18.80;88.60;;;;;;5074227;28;20050;-69
2022/05/19 07:30:13;;;;;;;0.00;0.00;;;18.90;88.60;;;;;;5070138;28;20045;-68
2022/05/19 07:32:39;;;;;;;0.00;0.00;;;18.90;88.50;;;;;;5074953;28;20067;-69
2022/05/19 07:35:07;;;;;;;0.10;0.10;;;19.00;88.40;;;;;;5090349;28;20048;-69
2022/05/19 07:37:33;;;;;;;0.00;0.00;;;19.00;88.20;;;;;;5089987;28;20040;-69
2022/05/19 07:39:58;;;;;;;0.00;0.00;;;19.00;88.20;;;;;;5090172;28;20055;-69
2022/05/19 07:42:27;;;;;;;0.00;0.00;;;19.00;88.10;;;;;;5087342;28;20039;-68
2022/05/19 07:44:52;;;;;;;0.10;0.10;;;19.10;87.90;;;;;;5075135;28;20683;-68
2022/05/19 07:47:19;;;;;;;0.00;0.00;;;19.10;87.90;;;;;;5077204;28;20046;-68
2022/05/19 07:49:45;;;;;;;0.00;0.00;;;19.20;87.80;;;;;;5083441;28;20048;-69
2022/05/19 07:52:11;;;;;;;0.00;0.00;;;19.20;87.70;;;;;;5078110;28;20044;-69
2022/05/19 07:54:37;;;;;;;0.00;0.00;;;19.20;87.60;;;;;;5087151;28;20043;-70
2022/05/19 07:57:04;;;;;;;0.00;0.00;;;19.30;87.60;;;;;;5076231;28;20051;-69
2022/05/19 07:59:30;;;;;;;0.00;0.00;;;19.30;87.60;;;;;;5085412;28;20044;-69
2022/05/19 08:01:56;;;;;;;0.00;0.00;;;19.40;87.50;;;;;;5073681;28;20048;-69
2022/05/19 08:04:24;;;;;;;0.00;0.00;;;19.40;87.40;;;;;;5085444;28;20439;-69
2022/05/19 08:06:50;;;;;;;0.00;0.00;;;19.40;87.50;;;;;;5070466;28;20036;-69
2022/05/19 08:12:01;;;;;;;0.00;0.00;;;19.50;87.30;;;;;;5088593;28;20044;-68
2022/05/19 08:17:14;;;;;;;0.00;0.00;;;19.60;87.10;;;;;;5086678;28;20044;-69
2022/05/19 08:19:39;;;;;;;0.00;0.00;;;19.60;87.20;;;;;;5078654;28;20056;-69
2022/05/19 08:22:08;;;;;;;0.00;0.00;;;19.60;87.00;;;;;;5079161;28;20036;-68
2022/05/19 08:24:34;;;;;;;0.00;0.00;;;19.60;87.00;;;;;;5074416;28;20102;-68
2022/05/19 08:27:00;;;;;;;0.00;0.00;;;19.60;86.70;;;;;;5069056;28;20055;-69
2022/05/19 08:29:26;;;;;;;5.38;1.15;;;19.60;86.60;;;;;;5091209;28;20590;-70
2022/05/19 08:31:52;;;;;;;0.00;0.00;;;19.60;86.80;;;;;;5076965;28;20045;-69
2022/05/19 08:34:18;;;;;;;0.00;0.00;;;19.60;86.60;;;;;;5072517;28;20037;-69
2022/05/19 08:36:44;;;;;;;0.00;0.00;;;19.70;86.70;;;;;;5083500;28;20052;-69
2022/05/19 08:39:11;;;;;;;0.00;0.00;;;19.70;86.60;;;;;;5085318;28;20048;-69
2022/05/19 08:41:38;;;;;;;0.00;0.00;;;19.70;86.60;;;;;;5091262;28;20791;-69
2022/05/19 08:44:06;;;;;;;0.00;0.00;;;19.80;86.40;;;;;;5079460;28;20543;-69
2022/05/19 08:46:45;;;;;;;0.00;0.00;;;19.80;86.30;;;;;;5072288;28;20041;-69
2022/05/19 08:49:36;;;;;;;0.00;0.00;;;19.80;86.20;;;;;;5072240;28;20048;-70
2022/05/19 08:52:09;;;;;;;0.00;0.00;;;19.80;86.10;;;;;;5077347;28;20037;-69
2022/05/19 08:54:37;;;;;;;0.00;0.00;;;19.90;86.00;;;;;;5085583;28;20587;-69
2022/05/19 08:57:16;;;;;;;0.00;0.00;;;20.00;85.80;;;;;;5096871;28;20036;-69
2022/05/19 09:00:02;;;;;;;0.00;0.00;;;20.00;85.50;;;;;;5106345;28;20048;-69
2022/05/19 09:02:44;;;;;;;0.00;0.00;;;20.00;85.10;;;;;;5078691;28;20439;-68
2022/05/19 09:05:09;;;;;;;;;;;19.90;85.10;;;;;;5072372;28;20049;-69
2022/05/19 09:07:59;;;;;;;0.30;0.30;;;19.90;85.10;;;;;;5073413;28;20299;-68
2022/05/19 09:10:40;;;;;;;0.00;0.00;;;20.00;85.20;;;;;;5084363;28;20040;-68
2022/05/19 09:13:23;;;;;;;0.00;0.00;;;20.00;84.90;;;;;;5075107;28;20114;-67
2022/05/19 09:15:49;;;;;;;0.00;0.00;;;20.00;85.10;;;;;;5092219;28;20051;-69
2022/05/19 09:18:19;;;;;;;0.00;0.00;;;19.90;85.00;;;;;;5092229;28;20052;-68
2022/05/19 09:20:53;;;;;;;0.60;0.28;;;19.90;85.10;;;;;;5086986;28;20049;-68
2022/05/19 09:23:19;;;;;;;0.00;0.00;;;20.00;85.40;;;;;;5084522;28;20045;-67
2022/05/19 09:26:08;;;;;;;0.00;0.00;;;20.00;85.40;;;;;;5085178;28;20047;-68
2022/05/19 09:28:35;;;;;;;0.00;0.00;;;20.00;85.30;;;;;;5083951;28;20059;-68
2022/05/19 09:31:00;;;;;;;0.30;0.25;;;20.10;85.80;;;;;;5090040;28;20040;-68
2022/05/19 09:33:34;;;;;;;0.00;0.00;;;20.20;85.70;;;;;;5086805;28;20086;-68
2022/05/19 09:36:05;;;;;;;0.00;0.00;;;20.30;85.70;;;;;;5083553;28;20924;-68
2022/05/19 09:38:36;;;;;;;0.05;0.05;;;20.40;85.60;;;;;;5079039;28;20032;-68
2022/05/19 09:41:27;;;;;;;0.00;0.00;;;20.50;85.40;;;;;;5083894;28;20040;-67
2022/05/19 09:43:54;;;;;;;0.28;0.28;;;20.50;85.50;;;;;;5083973;28;20090;-67
2022/05/19 09:46:21;;;;;;;0.00;0.00;;;20.60;85.50;;;;;;5078554;28;20518;-68
2022/05/19 09:49:04;;;;;;;0.00;0.00;;;20.70;85.10;;;;;;5086802;28;20101;-67
2022/05/19 09:51:43;;;;;;;0.00;0.00;;;20.70;85.00;;;;;;5082078;28;20129;-67
2022/05/19 09:54:12;;;;;;;0.00;0.00;;;20.70;85.00;;;;;;5085169;28;20036;-67
2022/05/19 09:56:49;;;;;;;0.00;0.00;;;20.80;84.90;;;;;;5078569;28;20063;-67
2022/05/19 09:59:23;;;;;;;0.00;0.00;;;20.80;84.70;;;;;;5071278;28;20068;-67
2022/05/19 10:02:01;;;;;;;0.00;0.00;;;20.90;85.10;;;;;;5081201;28;20036;-69
2022/05/19 10:04:39;;;;;;;0.00;0.00;;;21.00;85.00;;;;;;5080530;28;20527;-69
2022/05/19 10:07:19;;;;;;;0.00;0.00;;;21.10;84.50;;;;;;5076983;28;20575;-68
2022/05/19 10:09:46;;;;;;;0.00;0.00;;;21.20;84.40;;;;;;5076943;28;20055;-68
2022/05/19 10:12:20;;;;;;;0.00;0.00;;;21.20;84.00;;;;;;5078767;28;20051;-68
2022/05/19 10:14:56;;;;;;;0.00;0.00;;;21.20;83.70;;;;;;5089162;28;20323;-68
2022/05/19 10:17:50;;;;;;;0.00;0.00;;;21.20;83.80;;;;;;5080259;28;20135;-68
2022/05/19 10:20:21;;;;;;;0.15;0.15;;;21.30;83.80;;;;;;5070892;28;20098;-68
2022/05/19 10:23:15;;;;;;;0.00;0.00;;;21.40;83.70;;;;;;5072123;28;20078;-68
2022/05/19 10:26:05;;;;;;;0.15;0.15;;;21.40;83.40;;;;;;5074273;28;20051;-69
2022/05/19 10:31:41;;;;;;;0.00;0.00;;;21.50;83.00;;;;;;5082896;28;20048;-69
2022/05/19 10:34:26;;;;;;;0.95;0.47;;;21.60;82.70;;;;;;5077232;28;20409;-69
2022/05/19 10:37:29;;;;;;;0.00;0.00;;;21.60;82.50;;;;;;5077925;28;20062;-69
2022/05/19 10:40:10;;;;;;;0.00;0.00;;;21.70;82.30;;;;;;5083312;28;20139;-69
2022/05/19 10:43:00;;;;;;;0.73;0.73;;;22.00;82.30;;;;;;5071433;28;20048;-69
2022/05/19 10:45:27;;;;;;;0.10;0.10;;;22.10;81.90;;;;;;5075909;28;20089;-68
2022/05/19 10:48:21;;;;;;;0.00;0.00;;;22.30;81.30;;;;;;5080476;28;20505;-69
2022/05/19 10:50:59;;;;;;;0.10;0.10;;;22.40;80.40;;;;;;5081747;28;20068;-67
2022/05/19 10:53:40;;;;;;;0.00;0.00;;;22.50;79.50;;;;;;5084700;28;20048;-67
2022/05/19 10:56:43;;;;;;;0.17;0.17;;;22.50;79.00;;;;;;5084369;28;20101;-67
2022/05/19 10:59:57;;;;;;;2.83;1.17;;;22.70;79.20;;;;;;5083135;28;20048;-68
2022/05/19 11:02:40;;;;;;;0.05;0.05;;;22.80;77.70;;;;;;5071186;28;20375;-68
2022/05/19 11:05:17;;;;;;;0.00;0.00;;;22.90;78.10;;;;;;5079667;28;20080;-72
2022/05/19 11:08:21;;;;;;;0.08;0.08;;;23.00;77.40;;;;;;5076356;28;20513;-68
2022/05/19 11:11:04;;;;;;;0.00;0.00;;;23.10;76.60;;;;;;5062035;28;20150;-68
2022/05/19 11:13:47;;;;;;;0.00;0.00;;;23.10;75.60;;;;;;5075136;28;20066;-68
2022/05/19 11:16:16;;;;;;;0.00;0.00;;;23.10;76.30;;;;;;5074066;28;20067;-68
2022/05/19 11:19:09;;;;;;;0.00;0.00;;;23.10;76.70;;;;;;5076862;28;20854;-68
2022/05/19 11:21:43;;;;;;;0.00;0.00;;;23.10;75.90;;;;;;5089284;28;20409;-68
2022/05/19 11:24:23;;;;;;;0.00;0.00;;;22.90;74.60;;;;;;5089188;28;20089;-68
2022/05/19 11:27:27;;;;;;;0.00;0.00;;;22.90;75.60;;;;;;5089441;28;20440;-68
2022/05/19 11:30:00;;;;;;;0.00;0.00;;;22.70;74.80;;;;;;5069680;28;20048;-68
2022/05/19 11:32:34;;;;;;;0.00;0.00;;;22.60;75.30;;;;;;5104329;28;20051;-69
2022/05/19 11:35:32;;;;;;;0.00;0.00;;;22.50;75.50;;;;;;5085085;28;20043;-68
2022/05/19 11:38:20;;;;;;;0.00;0.00;;;22.40;76.30;;;;;;5076787;28;20044;-67
2022/05/19 11:41:08;;;;;;;0.00;0.00;;;22.30;77.00;;;;;;5074354;28;20086;-67
2022/05/19 11:44:00;;;;;;;0.00;0.00;;;22.20;77.70;;;;;;5064089;28;20044;-67
2022/05/19 11:46:34;;;;;;;0.00;0.00;;;22.10;77.80;;;;;;5073056;28;20501;-67
2022/05/19 11:55:24;;;;;;;0.20;0.20;;;21.80;77.90;;;;;;5078588;28;20044;-67
2022/05/19 11:58:11;;;;;;;0.00;0.00;;;21.60;78.30;;;;;;5075209;28;20133;-67
2022/05/19 12:00:55;;;;;;;0.00;0.00;;;21.50;79.20;;;;;;5080253;28;20389;-67
2022/05/19 12:03:46;;;;;;;0.10;0.10;;;21.10;80.20;;;;;;5068210;28;20083;-68
2022/05/19 12:06:12;;;;;;;0.00;0.00;;;20.80;82.50;;;;;;5082841;28;20044;-67
2022/05/19 12:09:07;;;;;;;0.00;0.00;;;20.20;79.70;;;;;;5093421;28;20301;-68
2022/05/19 12:11:45;;;;;;;0.00;0.00;;;19.50;77.90;;;;;;5068173;28;20059;-69
2022/05/19 12:14:11;;;;;;;1.65;1.25;;;19.30;80.90;;;;;;5086773;28;20063;-68
2022/05/19 12:16:52;;;;;;;0.00;0.00;;;19.20;82.50;;;;;;5079238;28;20062;-69
2022/05/19 12:19:39;;;;;;;0.00;0.00;;;19.10;83.20;;;;;;5069287;28;20040;-68
2022/05/19 12:22:26;;;;;;;0.00;0.00;;;19.00;84.50;;;;;;5075606;28;20040;-69
2022/05/19 12:25:14;;;;;;;0.10;0.10;;;18.90;86.70;;;;;;5084506;28;20036;-69
2022/05/19 12:28:23;;;;;;;0.00;0.00;;;18.80;87.50;;;;;;5078479;28;20439;-69
2022/05/19 12:33:36;;;;;;;0.00;0.00;;;18.50;88.20;;;;;;5082433;28;20162;-69
2022/05/19 12:36:10;;;;;;;0.00;0.00;;;18.50;88.40;;;;;;5090384;28;20049;-68
2022/05/19 12:38:38;;;;;;;0.00;0.00;;;18.40;88.70;;;;;;5109114;28;20055;-69
2022/05/19 12:41:28;;;;;;;0.00;0.00;;;18.30;88.50;;;;;;5091796;28;20397;-69
2022/05/19 12:43:56;;;;;;;0.00;0.00;;;18.30;88.70;;;;;;5084523;28;20060;-68
2022/05/19 12:46:45;;;;;;;0.22;0.22;;;18.30;88.50;;;;;;5081642;28;20052;-68
2022/05/19 12:49:25;;;;;;;0.00;0.00;;;18.30;88.40;;;;;;5084892;28;20052;-68
2022/05/19 12:52:17;;;;;;;0.45;0.45;;;18.20;88.40;;;;;;5093294;28;20039;-68
2022/05/19 12:55:11;;;;;;;0.00;0.00;;;18.20;88.20;;;;;;5089788;28;20113;-69
2022/05/19 12:57:37;;;;;;;0.00;0.00;;;18.20;88.30;;;;;;5068749;28;20039;-70
2022/05/19 13:00:10;;;;;;;0.00;0.00;;;18.10;87.90;;;;;;5068394;28;20049;-70
2022/05/19 13:03:00;;;;;;;0.00;0.00;;;18.10;88.00;;;;;;5070103;28;20119;-69
2022/05/19 13:05:30;;;;;;;0.00;0.00;;;18.10;87.80;;;;;;5064338;28;20102;-68
2022/05/19 13:08:33;;;;;;;0.00;0.00;;;18.00;88.10;;;;;;5070929;28;20794;-68
2022/05/19 13:11:03;;;;;;;0.00;0.00;;;17.90;88.40;;;;;;5086181;28;20127;-69
2022/05/19 13:13:40;;;;;;;0.00;0.00;;;17.80;88.40;;;;;;5068288;28;20493;-70
2022/05/19 13:16:40;;;;;;;0.00;0.00;;;17.80;88.60;;;;;;5072649;28;20066;-70
2022/05/19 13:19:17;;;;;;;0.00;0.00;;;17.70;88.50;;;;;;5098425;28;20043;-69
2022/05/19 13:21:52;;;;;;;0.00;0.00;;;17.70;88.60;;;;;;5073922;28;20049;-69
2022/05/19 13:24:19;;;;;;;0.00;0.00;;;17.70;88.80;;;;;;5102405;28;20040;-70
2022/05/19 13:26:46;;;;;;;0.00;0.00;;;17.70;88.70;;;;;;5080544;28;20102;-70
2022/05/19 13:32:29;;;;;;;0.00;0.00;;;17.70;88.70;;;;;;5029130;28;20075;-69
2022/05/19 13:34:58;;;;;;;0.00;0.00;;;17.80;88.80;;;;;;5028925;28;20124;-69
2022/05/19 13:37:34;;;;;;;0.00;0.00;;;17.90;88.60;;;;;;5046139;28;20087;-69